Time;durP1;ratioP1;P1;durP2;ratioP2;P2;SDS_P1;SDS_P2;PMS_P1;PMS_P2;Temp;Humidity;BMP_temperature;BMP_pressure;BME280_temperature;BME280_humidity;BME280_pressure;Samples;Min_cycle;Max_cycle;Signal;HPM_P1;HPM_P2
2021/08/08 00:09:37;;;;;;;41.33;5.60;;;13.20;99.90;;;;;;20934963;28;20033;-78
2021/08/08 00:19:38;;;;;;;121.73;8.33;;;13.30;99.90;;;;;;20936783;28;20037;-77
2021/08/08 00:29:39;;;;;;;67.23;6.30;;;13.30;99.90;;;;;;20935982;28;20025;-78
2021/08/08 00:39:40;;;;;;;36.47;6.60;;;13.30;99.90;;;;;;20914393;28;20036;-78
2021/08/08 00:49:41;;;;;;;10.13;4.47;;;13.10;99.90;;;;;;20917850;28;20040;-79
2021/08/08 00:59:42;;;;;;;23.93;5.90;;;13.20;99.90;;;;;;20934190;28;20049;-78
2021/08/08 01:09:51;;;;;;;30.92;6.15;;;13.20;99.90;;;;;;20933188;28;20267;-78
2021/08/08 01:20:07;;;;;;;9.85;4.40;;;13.20;99.90;;;;;;20922727;28;20032;-78
2021/08/08 01:30:24;;;;;;;6.75;2.90;;;13.20;99.90;;;;;;20932695;28;20195;-78
2021/08/08 01:40:36;;;;;;;4.88;2.70;;;13.10;99.90;;;;;;20929054;28;20045;-78
2021/08/08 01:50:39;;;;;;;13.90;3.97;;;13.00;99.90;;;;;;20911051;28;20137;-78
2021/08/08 02:00:47;;;;;;;8.50;3.88;;;12.90;99.90;;;;;;20907824;28;20044;-77
2021/08/08 02:10:55;;;;;;;6.03;3.60;;;12.70;99.90;;;;;;20923144;28;20128;-77
2021/08/08 02:21:04;;;;;;;7.63;4.25;;;12.70;99.90;;;;;;20922577;28;20276;-77
2021/08/08 02:31:07;;;;;;;10.70;4.07;;;12.60;99.90;;;;;;20921139;28;20065;-78
2021/08/08 02:41:08;;;;;;;9.20;3.87;;;12.60;99.90;;;;;;20918877;28;20104;-77
2021/08/08 02:51:09;;;;;;;6.32;2.13;;;12.60;99.90;;;;;;20920550;28;20120;-77
2021/08/08 03:01:11;;;;;;;10.73;2.80;;;12.90;99.90;;;;;;20918609;28;20033;-78
2021/08/08 03:11:14;;;;;;;5.18;2.55;;;12.90;99.90;;;;;;20917258;28;20056;-77
2021/08/08 03:21:15;;;;;;;6.72;2.30;;;13.10;99.90;;;;;;20934391;28;20032;-77
2021/08/08 03:31:17;;;;;;;5.27;2.17;;;13.10;99.90;;;;;;20855697;28;20037;-78
2021/08/08 03:41:18;;;;;;;7.88;2.05;;;13.00;99.90;;;;;;20851046;28;20030;-77
2021/08/08 03:51:20;;;;;;;9.95;2.10;;;13.00;99.90;;;;;;20829969;28;20045;-78
2021/08/08 04:01:22;;;;;;;7.68;2.25;;;12.80;99.90;;;;;;20831030;28;20505;-78
2021/08/08 04:11:23;;;;;;;6.03;2.07;;;12.70;99.90;;;;;;20829594;28;20037;-77
2021/08/08 04:21:24;;;;;;;3.07;2.20;;;12.60;99.90;;;;;;20830863;28;20059;-77
2021/08/08 04:31:25;;;;;;;5.63;2.33;;;12.60;99.90;;;;;;20909295;28;20504;-78
2021/08/08 04:41:26;;;;;;;5.43;2.07;;;12.80;99.90;;;;;;20929788;28;20024;-77
2021/08/08 04:51:28;;;;;;;8.18;2.35;;;12.80;99.90;;;;;;20899319;28;20044;-76
2021/08/08 05:01:30;;;;;;;6.07;2.50;;;12.70;99.90;;;;;;20914066;28;20032;-77
2021/08/08 05:11:32;;;;;;;196.77;7.60;;;12.60;99.90;;;;;;20926749;28;20119;-77
2021/08/08 05:21:33;;;;;;;5.85;2.22;;;12.80;99.90;;;;;;20931082;28;20031;-77
2021/08/08 05:31:34;;;;;;;8.73;3.33;;;13.00;99.90;;;;;;20870329;28;20037;-77
2021/08/08 05:41:35;;;;;;;5.47;3.30;;;13.10;99.90;;;;;;20847070;28;20030;-77
2021/08/08 05:51:37;;;;;;;5.77;3.80;;;13.30;99.90;;;;;;20852324;28;20041;-77
2021/08/08 06:01:38;;;;;;;8.00;3.83;;;13.60;99.90;;;;;;20846684;28;20030;-78
2021/08/08 06:11:39;;;;;;;4.83;3.17;;;14.00;99.90;;;;;;20854596;28;20056;-77
2021/08/08 06:21:41;;;;;;;6.15;3.90;;;14.00;99.90;;;;;;20835218;28;20040;-78
2021/08/08 06:31:42;;;;;;;4.33;2.73;;;14.10;99.90;;;;;;20821611;28;20052;-77
2021/08/08 06:41:44;;;;;;;7.10;1.70;;;14.60;99.90;;;;;;20822060;28;20391;-77
2021/08/08 06:51:49;;;;;;;3.35;1.40;;;14.70;99.90;;;;;;20837299;28;20124;-78
2021/08/08 07:01:50;;;;;;;3.23;1.43;;;14.80;99.90;;;;;;20859806;28;20025;-78
2021/08/08 07:11:52;;;;;;;2.58;1.80;;;14.80;99.90;;;;;;20833939;28;20029;-78
2021/08/08 07:22:01;;;;;;;4.85;1.90;;;14.80;99.90;;;;;;20838716;28;20053;-78
2021/08/08 07:32:03;;;;;;;7.05;2.20;;;14.90;99.90;;;;;;20846770;28;20506;-77
2021/08/08 07:42:05;;;;;;;3.40;1.70;;;15.20;99.90;;;;;;20804192;28;20056;-76
2021/08/08 07:52:06;;;;;;;5.73;1.63;;;15.90;99.90;;;;;;20820546;28;20044;-77
2021/08/08 08:02:08;;;;;;;7.13;1.35;;;16.20;99.90;;;;;;20829674;28;20103;-78
2021/08/08 08:12:09;;;;;;;4.10;1.20;;;16.10;99.90;;;;;;20836363;28;20030;-79
2021/08/08 08:22:10;;;;;;;9.07;1.40;;;16.60;99.90;;;;;;20817898;28;20505;-79
2021/08/08 08:32:11;;;;;;;9.53;1.30;;;17.60;99.90;;;;;;20852001;28;20072;-80
2021/08/08 08:42:14;;;;;;;4.07;1.40;;;17.70;99.90;;;;;;20839922;28;20124;-79
2021/08/08 08:52:21;;;;;;;3.50;1.20;;;17.50;99.90;;;;;;20852309;28;20398;-78
2021/08/08 09:02:22;;;;;;;6.97;1.30;;;18.20;99.90;;;;;;20818038;28;20037;-79
2021/08/08 09:12:25;;;;;;;8.85;1.25;;;19.10;99.90;;;;;;20836798;28;20048;-78
2021/08/08 09:22:29;;;;;;;5.38;1.20;;;19.40;99.90;;;;;;20819702;28;20418;-78
2021/08/08 09:32:33;;;;;;;9.77;1.38;;;18.80;99.90;;;;;;20840519;28;20025;-80
2021/08/08 09:42:44;;;;;;;2.10;0.90;;;18.50;99.90;;;;;;20846419;28;20033;-77
2021/08/08 09:53:00;;;;;;;4.80;0.80;;;20.10;99.90;;;;;;20850387;28;20037;-78
2021/08/08 10:03:07;;;;;;;2.83;0.98;;;20.50;99.90;;;;;;20835371;28;20033;-76
2021/08/08 10:13:07;;;;;;;6.30;0.95;;;20.10;99.90;;;;;;20842760;28;20157;-80
2021/08/08 10:23:14;;;;;;;7.77;2.13;;;21.00;99.90;;;;;;20827778;28;20041;-80
2021/08/08 10:33:15;;;;;;;2.90;0.93;;;19.60;99.90;;;;;;20838337;28;20538;-80
2021/08/08 10:43:31;;;;;;;5.00;1.47;;;19.40;99.90;;;;;;20855464;28;20399;-81
2021/08/08 10:53:32;;;;;;;3.97;0.93;;;19.10;99.90;;;;;;20858096;28;20033;-79
2021/08/08 11:03:33;;;;;;;3.03;0.97;;;19.80;99.90;;;;;;20858967;28;20112;-79
2021/08/08 11:13:34;;;;;;;3.13;0.87;;;19.40;99.90;;;;;;20856011;28;20032;-80
2021/08/08 11:23:35;;;;;;;3.07;0.73;;;20.90;99.90;;;;;;20855639;28;20033;-78
2021/08/08 11:33:36;;;;;;;1.60;0.50;;;20.90;99.90;;;;;;20838238;28;20062;-78
2021/08/08 11:43:37;;;;;;;2.13;0.85;;;21.40;99.90;;;;;;20836473;28;20045;-79
2021/08/08 11:53:38;;;;;;;3.80;0.90;;;21.90;99.90;;;;;;20800433;28;20042;-77
2021/08/08 12:03:39;;;;;;;7.47;1.37;;;21.50;99.90;;;;;;20772446;28;20037;-78
2021/08/08 12:13:40;;;;;;;4.50;1.00;;;22.10;99.90;;;;;;20770813;28;20030;-77
2021/08/08 12:23:41;;;;;;;1.97;0.97;;;21.80;99.90;;;;;;20737917;28;20073;-80
2021/08/08 12:33:42;;;;;;;4.33;0.80;;;22.40;99.90;;;;;;20822294;28;20030;-80
2021/08/08 12:43:47;;;;;;;3.27;0.83;;;22.70;99.90;;;;;;20848877;28;20053;-79
2021/08/08 12:53:48;;;;;;;5.18;0.80;;;22.30;99.90;;;;;;20849767;28;20091;-79
2021/08/08 13:03:49;;;;;;;2.47;0.80;;;23.10;99.90;;;;;;20849602;28;20033;-79
2021/08/08 13:13:50;;;;;;;3.10;0.87;;;23.00;99.90;;;;;;20853417;28;20093;-79
2021/08/08 13:23:51;;;;;;;5.93;0.87;;;21.70;99.90;;;;;;20864807;28;20037;-78
2021/08/08 13:33:52;;;;;;;10.47;0.97;;;21.90;99.90;;;;;;20926665;28;20069;-77
2021/08/08 13:43:53;;;;;;;4.27;1.03;;;22.40;99.90;;;;;;20945757;28;20482;-78
2021/08/08 13:53:53;;;;;;;4.43;1.37;;;23.60;99.90;;;;;;20914557;28;20036;-79
2021/08/08 14:03:55;;;;;;;3.83;1.23;;;22.30;99.90;;;;;;20763709;28;20526;-76
2021/08/08 14:13:56;;;;;;;2.03;0.88;;;23.10;99.90;;;;;;20826453;28;20037;-79
2021/08/08 14:23:57;;;;;;;2.37;0.70;;;22.90;99.90;;;;;;20858752;28;20068;-79
2021/08/08 14:33:59;;;;;;;3.87;0.80;;;23.00;99.90;;;;;;20856269;28;20021;-79
2021/08/08 14:44:00;;;;;;;1.67;0.60;;;23.40;99.90;;;;;;20840141;28;20482;-78
2021/08/08 14:54:02;;;;;;;;;;;23.30;99.90;;;;;;20842191;28;20083;-78
2021/08/08 15:04:03;;;;;;;4.97;0.80;;;22.40;99.90;;;;;;20833043;28;19957;-76
2021/08/08 15:14:03;;;;;;;2.33;0.70;;;23.10;99.90;;;;;;20844566;28;20036;-77
2021/08/08 15:24:04;;;;;;;2.60;0.60;;;23.60;99.90;;;;;;20845475;28;20299;-76
2021/08/08 15:34:05;;;;;;;2.00;0.80;;;22.70;99.90;;;;;;20928781;28;20064;-75
2021/08/08 15:44:07;;;;;;;1.73;0.87;;;21.70;99.90;;;;;;20873337;28;20025;-77
2021/08/08 15:54:07;;;;;;;3.30;0.80;;;21.50;99.90;;;;;;20829014;28;20060;-77
2021/08/08 16:04:08;;;;;;;3.20;0.77;;;22.00;99.90;;;;;;20853705;28;20374;-80
2021/08/08 16:14:10;;;;;;;3.83;0.80;;;22.40;99.90;;;;;;20832196;28;20029;-77
2021/08/08 16:24:10;;;;;;;;;;;21.70;99.90;;;;;;20777885;28;20058;-79
2021/08/08 16:34:11;;;;;;;2.70;0.82;;;21.40;99.90;;;;;;20763924;28;19929;-78
2021/08/08 16:44:13;;;;;;;2.63;1.00;;;21.40;99.90;;;;;;20770887;28;20061;-77
2021/08/08 16:54:14;;;;;;;3.00;0.90;;;21.20;99.90;;;;;;20753333;28;20037;-79
2021/08/08 17:04:15;;;;;;;2.83;0.83;;;20.90;99.90;;;;;;20817964;28;20038;-78
2021/08/08 17:14:16;;;;;;;4.93;0.90;;;20.90;99.90;;;;;;20802886;28;20033;-78
2021/08/08 17:24:17;;;;;;;5.83;1.10;;;20.80;99.90;;;;;;20819549;28;20120;-79
2021/08/08 17:34:18;;;;;;;5.17;1.17;;;20.50;99.90;;;;;;20818818;28;20053;-76
2021/08/08 17:44:18;;;;;;;2.10;0.90;;;20.30;99.90;;;;;;20806861;28;20037;-79
2021/08/08 17:54:19;;;;;;;3.07;0.80;;;20.00;99.90;;;;;;20832213;28;20089;-79
2021/08/08 18:04:20;;;;;;;3.47;1.00;;;19.50;99.90;;;;;;20819628;28;20047;-79
2021/08/08 18:14:21;;;;;;;5.00;1.37;;;19.10;99.90;;;;;;20845089;28;20037;-79
2021/08/08 18:24:22;;;;;;;2.93;0.93;;;18.80;99.90;;;;;;20786291;28;20034;-80
2021/08/08 18:34:23;;;;;;;3.40;1.10;;;18.40;99.90;;;;;;20744372;28;20574;-80
2021/08/08 18:44:24;;;;;;;2.43;0.90;;;18.20;99.90;;;;;;20759888;28;20025;-80
2021/08/08 18:54:25;;;;;;;2.23;0.90;;;17.90;99.90;;;;;;20774430;28;20047;-80
2021/08/08 19:04:26;;;;;;;1.90;0.80;;;17.00;99.90;;;;;;20814789;28;20072;-80
2021/08/08 19:14:27;;;;;;;3.80;1.27;;;16.00;99.90;;;;;;20816749;28;20037;-78
2021/08/08 19:24:28;;;;;;;3.07;1.17;;;15.60;99.90;;;;;;20836706;28;20080;-81
2021/08/08 19:34:33;;;;;;;5.57;1.20;;;15.20;99.90;;;;;;20835919;28;20037;-80
2021/08/08 19:44:34;;;;;;;3.65;1.67;;;15.00;99.90;;;;;;20833256;28;20495;-78
2021/08/08 19:54:35;;;;;;;4.67;1.43;;;14.60;99.90;;;;;;20855356;28;1302589;-79
2021/08/08 20:04:36;;;;;;;5.33;1.77;;;14.60;99.90;;;;;;20921537;28;20051;-79
2021/08/08 20:14:37;;;;;;;3.23;1.80;;;14.20;99.90;;;;;;20885902;28;20128;-78
2021/08/08 20:24:38;;;;;;;4.87;1.93;;;13.90;99.90;;;;;;20833359;28;20037;-77
2021/08/08 20:34:41;;;;;;;3.13;1.67;;;14.00;99.90;;;;;;20869407;28;20036;-78
2021/08/08 20:44:41;;;;;;;5.22;1.48;;;13.70;99.90;;;;;;20906252;28;20124;-78
2021/08/08 20:54:42;;;;;;;4.97;1.87;;;13.50;99.90;;;;;;20917168;28;20041;-77
2021/08/08 21:04:43;;;;;;;9.90;2.13;;;13.70;99.90;;;;;;20916126;28;20036;-78
2021/08/08 21:14:44;;;;;;;3.70;1.80;;;13.60;99.90;;;;;;20896588;28;20037;-77
2021/08/08 21:24:45;;;;;;;3.63;1.60;;;13.40;99.90;;;;;;20915536;28;20059;-78
2021/08/08 21:34:46;;;;;;;6.27;1.57;;;13.30;99.90;;;;;;20918536;28;20045;-78
2021/08/08 21:44:48;;;;;;;4.30;1.30;;;13.60;99.90;;;;;;20925139;28;20033;-79
2021/08/08 21:54:49;;;;;;;4.28;1.90;;;12.90;99.90;;;;;;20871010;28;20021;-77
2021/08/08 22:04:50;;;;;;;6.63;1.50;;;12.60;99.90;;;;;;20875779;28;20044;-78
2021/08/08 22:14:51;;;;;;;9.97;2.07;;;12.90;99.90;;;;;;20926259;28;20056;-78
2021/08/08 22:24:53;;;;;;;3.90;1.53;;;13.00;99.90;;;;;;20923532;28;20045;-78
2021/08/08 22:34:54;;;;;;;3.90;1.42;;;12.80;99.90;;;;;;20928514;28;20092;-79
2021/08/08 22:44:56;;;;;;;4.87;1.60;;;12.70;99.90;;;;;;20944441;28;20036;-79
2021/08/08 22:54:57;;;;;;;7.35;1.48;;;12.50;99.90;;;;;;20943794;28;20112;-79
2021/08/08 23:04:58;;;;;;;8.07;1.70;;;12.60;99.90;;;;;;20926559;28;20029;-78
2021/08/08 23:14:58;;;;;;;3.50;1.70;;;12.10;99.90;;;;;;20941756;28;20025;-77
2021/08/08 23:24:59;;;;;;;6.40;1.60;;;12.00;99.90;;;;;;20943194;28;20040;-78
2021/08/08 23:35:00;;;;;;;3.87;1.50;;;12.00;99.90;;;;;;20922403;28;20033;-78
2021/08/08 23:45:01;;;;;;;7.63;1.90;;;12.00;99.90;;;;;;20921151;28;20039;-78
2021/08/08 23:55:02;;;;;;;4.93;2.20;;;12.00;99.90;;;;;;20921174;28;20091;-78
